Columbus, NM (88029)

9:24 PM MST on March 03, 2015 (GMT -0700)
Sapphire IABR | Change Station
CLOSE
Current Station
Personal Weather Station
Location: Columbus, NM
Elevation: 4345 ft
Nearby Weather Stations

Elev 4345 ft 31.80 °N, 107.78 °W | Updated 6 minutes ago

Partly Cloudy
Partly Cloudy
49.6 °F
Feels Like 45 °F
N
13.0
Wind Variable Wind from South
Gusts 17.0 mph

Today
High -- | Low -- °F
--% Chance of Precip.
Yesterday
High -- | Low -- °F
Precip. -- in
6:35 AM 6:09 PM
Waxing Gibbous, 98% visible
Pressure 29.77 in
Visibility 10.0 miles
Clouds Clear
Windchill 45 °F
Dew Point 42 °F
Humidity 74%
Rainfall 0.27 in
Snow Depth Not available.
UV 0 out of 12
Pollen 7.90 out of 12
Air Quality Not available.
Flu Activity Not available.
METAR KDMN 040353Z AUTO 17005KT 10SM CLR 08/03 A2985 RMK AO2 SLP081 T00780033

More Conditions Fewer Conditions

Pressure 29.77 in
Visibility 10.0 miles
Clouds Clear
Windchill 45 °F
Dew Point 42 °F
Humidity 74%
Rainfall 0.27 in
Snow Depth Not available.
UV 0 out of 12
Pollen 7.90 out of 12
Air Quality Not available.
Flu Activity Not available.
METAR KDMN 040353Z AUTO 17005KT 10SM CLR 08/03 A2985 RMK AO2 SLP081 T00780033

More Conditions Fewer Conditions

10-Day Weather Forecast

Almanac

Astronomy

Mar. 03, 2015 Rise Set
Actual Time
Civil Twilight
Nautical Twilight
Astronomical Twilight
Moon
Length of Visible Light
Length of Day
Tomorrow will be .
, % of the Moon is Illuminated

Today's Extremes

State Highs State Lows

Community

WunderPhotos

Upload Photos

1,802,383 photos uploaded!

WunderBlogs® & News

Nearby

Air Quality

  Air Quality AQ Index Pollutant
Not available.

Snow Depth

Station Depth Elevation

Earthquake Activity

City Distance Mag. Time & Date
Minimum magnitude displayed is 2.5.

Coastal Water Temperatures

Place Temperature

Nearby Weather Stations